sensor_id;sensor_type;location;lat;lon;timestamp;temperature;humidity
12125;DHT22;6126;57.908;16.490;2022-08-19T00:01:49;17.60;92.50
12125;DHT22;6126;57.908;16.490;2022-08-19T00:04:18;17.80;92.50
12125;DHT22;6126;57.908;16.490;2022-08-19T00:06:51;17.70;92.50
12125;DHT22;6126;57.908;16.490;2022-08-19T00:09:19;17.70;92.60
12125;DHT22;6126;57.908;16.490;2022-08-19T00:11:47;17.80;92.60
12125;DHT22;6126;57.908;16.490;2022-08-19T00:14:14;18.00;92.70
12125;DHT22;6126;57.908;16.490;2022-08-19T00:16:43;18.00;92.50
12125;DHT22;6126;57.908;16.490;2022-08-19T00:19:11;18.20;92.40
12125;DHT22;6126;57.908;16.490;2022-08-19T00:21:37;17.70;92.20
12125;DHT22;6126;57.908;16.490;2022-08-19T00:24:05;17.90;92.50
12125;DHT22;6126;57.908;16.490;2022-08-19T00:26:36;17.90;92.60
12125;DHT22;6126;57.908;16.490;2022-08-19T00:29:06;18.10;92.70
12125;DHT22;6126;57.908;16.490;2022-08-19T00:31:35;17.90;92.70
12125;DHT22;6126;57.908;16.490;2022-08-19T00:34:01;18.00;92.80
12125;DHT22;6126;57.908;16.490;2022-08-19T00:36:28;17.50;92.50
12125;DHT22;6126;57.908;16.490;2022-08-19T00:38:55;17.70;92.50
12125;DHT22;6126;57.908;16.490;2022-08-19T00:41:23;17.70;92.60
12125;DHT22;6126;57.908;16.490;2022-08-19T00:44:00;17.80;92.60
12125;DHT22;6126;57.908;16.490;2022-08-19T00:46:42;17.60;92.50
12125;DHT22;6126;57.908;16.490;2022-08-19T00:49:19;17.30;92.60
12125;DHT22;6126;57.908;16.490;2022-08-19T00:52:08;17.50;92.70
12125;DHT22;6126;57.908;16.490;2022-08-19T00:54:39;17.80;92.70
12125;DHT22;6126;57.908;16.490;2022-08-19T00:57:09;17.40;92.50
12125;DHT22;6126;57.908;16.490;2022-08-19T00:59:41;17.40;92.80
12125;DHT22;6126;57.908;16.490;2022-08-19T01:02:11;17.00;92.70
12125;DHT22;6126;57.908;16.490;2022-08-19T01:04:37;17.50;93.10
12125;DHT22;6126;57.908;16.490;2022-08-19T01:07:05;17.50;93.20
12125;DHT22;6126;57.908;16.490;2022-08-19T01:09:31;17.20;93.00
12125;DHT22;6126;57.908;16.490;2022-08-19T01:11:57;17.60;93.20
12125;DHT22;6126;57.908;16.490;2022-08-19T01:14:24;17.30;93.00
12125;DHT22;6126;57.908;16.490;2022-08-19T01:16:51;17.10;92.90
12125;DHT22;6126;57.908;16.490;2022-08-19T01:19:30;17.30;93.10
12125;DHT22;6126;57.908;16.490;2022-08-19T01:22:11;17.20;93.10
12125;DHT22;6126;57.908;16.490;2022-08-19T01:24:38;17.20;93.10
12125;DHT22;6126;57.908;16.490;2022-08-19T01:27:06;17.20;93.20
12125;DHT22;6126;57.908;16.490;2022-08-19T01:29:33;17.00;93.10
12125;DHT22;6126;57.908;16.490;2022-08-19T01:32:02;17.30;93.20
12125;DHT22;6126;57.908;16.490;2022-08-19T01:34:28;17.10;93.20
12125;DHT22;6126;57.908;16.490;2022-08-19T01:36:54;17.00;93.10
12125;DHT22;6126;57.908;16.490;2022-08-19T01:39:25;17.10;93.20
12125;DHT22;6126;57.908;16.490;2022-08-19T01:41:52;17.00;93.20
12125;DHT22;6126;57.908;16.490;2022-08-19T01:44:20;17.00;93.50
12125;DHT22;6126;57.908;16.490;2022-08-19T01:46:49;16.90;93.30
12125;DHT22;6126;57.908;16.490;2022-08-19T01:49:21;17.20;93.50
12125;DHT22;6126;57.908;16.490;2022-08-19T01:51:49;17.20;93.50
12125;DHT22;6126;57.908;16.490;2022-08-19T01:54:17;17.10;93.50
12125;DHT22;6126;57.908;16.490;2022-08-19T01:56:44;17.10;93.60
12125;DHT22;6126;57.908;16.490;2022-08-19T01:59:13;17.10;93.50
12125;DHT22;6126;57.908;16.490;2022-08-19T02:01:41;17.10;93.50
12125;DHT22;6126;57.908;16.490;2022-08-19T02:04:08;17.30;93.70
12125;DHT22;6126;57.908;16.490;2022-08-19T02:06:35;17.00;93.60
12125;DHT22;6126;57.908;16.490;2022-08-19T02:09:03;16.90;93.50
12125;DHT22;6126;57.908;16.490;2022-08-19T02:11:32;17.00;93.50
12125;DHT22;6126;57.908;16.490;2022-08-19T02:14:04;17.00;93.60
12125;DHT22;6126;57.908;16.490;2022-08-19T02:16:32;17.10;93.70
12125;DHT22;6126;57.908;16.490;2022-08-19T02:18:58;17.00;93.70
12125;DHT22;6126;57.908;16.490;2022-08-19T02:21:27;17.00;93.70
12125;DHT22;6126;57.908;16.490;2022-08-19T02:23:55;17.00;93.70
12125;DHT22;6126;57.908;16.490;2022-08-19T02:26:21;17.30;93.80
12125;DHT22;6126;57.908;16.490;2022-08-19T02:28:48;16.80;93.60
12125;DHT22;6126;57.908;16.490;2022-08-19T02:31:19;16.80;93.60
12125;DHT22;6126;57.908;16.490;2022-08-19T02:33:48;17.00;93.80
12125;DHT22;6126;57.908;16.490;2022-08-19T02:36:16;16.80;93.90
12125;DHT22;6126;57.908;16.490;2022-08-19T02:38:43;16.90;93.90
12125;DHT22;6126;57.908;16.490;2022-08-19T02:41:18;16.60;93.80
12125;DHT22;6126;57.908;16.490;2022-08-19T02:43:47;17.00;94.00
12125;DHT22;6126;57.908;16.490;2022-08-19T02:46:23;16.90;94.00
12125;DHT22;6126;57.908;16.490;2022-08-19T02:48:54;16.80;94.00
12125;DHT22;6126;57.908;16.490;2022-08-19T02:51:29;16.80;94.10
12125;DHT22;6126;57.908;16.490;2022-08-19T02:53:57;16.90;94.10
12125;DHT22;6126;57.908;16.490;2022-08-19T02:56:24;16.90;94.10
12125;DHT22;6126;57.908;16.490;2022-08-19T02:58:52;16.90;94.10
12125;DHT22;6126;57.908;16.490;2022-08-19T03:01:28;17.20;94.10
12125;DHT22;6126;57.908;16.490;2022-08-19T03:03:58;16.90;94.00
12125;DHT22;6126;57.908;16.490;2022-08-19T03:06:26;16.80;93.80
12125;DHT22;6126;57.908;16.490;2022-08-19T03:08:53;16.70;93.80
12125;DHT22;6126;57.908;16.490;2022-08-19T03:11:23;16.80;93.90
12125;DHT22;6126;57.908;16.490;2022-08-19T03:13:51;16.80;94.00
12125;DHT22;6126;57.908;16.490;2022-08-19T03:16:23;16.60;94.00
12125;DHT22;6126;57.908;16.490;2022-08-19T03:18:51;16.80;94.10
12125;DHT22;6126;57.908;16.490;2022-08-19T03:21:21;16.60;94.00
12125;DHT22;6126;57.908;16.490;2022-08-19T03:23:50;16.70;94.20
12125;DHT22;6126;57.908;16.490;2022-08-19T03:26:19;16.60;94.20
12125;DHT22;6126;57.908;16.490;2022-08-19T03:28:45;16.50;94.20
12125;DHT22;6126;57.908;16.490;2022-08-19T03:31:16;16.60;94.30
12125;DHT22;6126;57.908;16.490;2022-08-19T03:33:45;16.70;94.40
12125;DHT22;6126;57.908;16.490;2022-08-19T03:36:20;16.50;94.30
12125;DHT22;6126;57.908;16.490;2022-08-19T03:38:52;16.60;94.40
12125;DHT22;6126;57.908;16.490;2022-08-19T03:41:35;16.70;94.40
12125;DHT22;6126;57.908;16.490;2022-08-19T03:44:04;17.00;94.50
12125;DHT22;6126;57.908;16.490;2022-08-19T03:46:32;16.90;94.40
12125;DHT22;6126;57.908;16.490;2022-08-19T03:49:01;16.70;94.20
12125;DHT22;6126;57.908;16.490;2022-08-19T03:51:35;17.00;94.30
12125;DHT22;6126;57.908;16.490;2022-08-19T03:54:06;16.90;94.30
12125;DHT22;6126;57.908;16.490;2022-08-19T03:56:36;17.00;94.40
12125;DHT22;6126;57.908;16.490;2022-08-19T03:59:05;16.80;94.30
12125;DHT22;6126;57.908;16.490;2022-08-19T04:01:35;16.70;94.30
12125;DHT22;6126;57.908;16.490;2022-08-19T04:04:01;16.90;94.40
12125;DHT22;6126;57.908;16.490;2022-08-19T04:06:31;16.70;94.30
12125;DHT22;6126;57.908;16.490;2022-08-19T04:09:01;16.60;94.30
12125;DHT22;6126;57.908;16.490;2022-08-19T04:11:34;16.90;94.50
12125;DHT22;6126;57.908;16.490;2022-08-19T04:14:08;16.80;94.40
12125;DHT22;6126;57.908;16.490;2022-08-19T04:16:35;16.50;94.50
12125;DHT22;6126;57.908;16.490;2022-08-19T04:19:03;16.60;94.50
12125;DHT22;6126;57.908;16.490;2022-08-19T04:21:30;16.70;94.60
12125;DHT22;6126;57.908;16.490;2022-08-19T04:23:57;16.70;94.60
12125;DHT22;6126;57.908;16.490;2022-08-19T04:26:27;16.80;94.70
12125;DHT22;6126;57.908;16.490;2022-08-19T04:28:57;16.70;94.60
12125;DHT22;6126;57.908;16.490;2022-08-19T04:31:27;16.70;94.60
12125;DHT22;6126;57.908;16.490;2022-08-19T04:33:59;16.70;94.60
12125;DHT22;6126;57.908;16.490;2022-08-19T04:36:30;17.20;94.80
12125;DHT22;6126;57.908;16.490;2022-08-19T04:39:00;17.00;94.70
12125;DHT22;6126;57.908;16.490;2022-08-19T04:41:31;17.20;94.80
12125;DHT22;6126;57.908;16.490;2022-08-19T04:44:16;17.10;94.70
12125;DHT22;6126;57.908;16.490;2022-08-19T04:46:46;17.20;94.70
12125;DHT22;6126;57.908;16.490;2022-08-19T04:49:13;17.10;94.60
12125;DHT22;6126;57.908;16.490;2022-08-19T04:51:42;17.30;94.60
12125;DHT22;6126;57.908;16.490;2022-08-19T04:54:09;17.30;94.60
12125;DHT22;6126;57.908;16.490;2022-08-19T04:56:36;17.40;94.50
12125;DHT22;6126;57.908;16.490;2022-08-19T04:59:02;17.40;94.50
12125;DHT22;6126;57.908;16.490;2022-08-19T05:01:31;17.50;94.50
12125;DHT22;6126;57.908;16.490;2022-08-19T05:04:04;17.80;94.60
12125;DHT22;6126;57.908;16.490;2022-08-19T05:06:33;17.50;94.50
12125;DHT22;6126;57.908;16.490;2022-08-19T05:09:04;17.60;94.50
12125;DHT22;6126;57.908;16.490;2022-08-19T05:11:34;17.90;94.60
12125;DHT22;6126;57.908;16.490;2022-08-19T05:14:06;17.70;94.40
12125;DHT22;6126;57.908;16.490;2022-08-19T05:16:32;17.80;94.40
12125;DHT22;6126;57.908;16.490;2022-08-19T05:18:58;18.00;94.50
12125;DHT22;6126;57.908;16.490;2022-08-19T05:21:43;18.00;94.50
12125;DHT22;6126;57.908;16.490;2022-08-19T05:24:30;18.00;94.40
12125;DHT22;6126;57.908;16.490;2022-08-19T05:27:00;18.10;94.40
12125;DHT22;6126;57.908;16.490;2022-08-19T05:29:29;18.20;94.40
12125;DHT22;6126;57.908;16.490;2022-08-19T05:31:57;18.20;94.30
12125;DHT22;6126;57.908;16.490;2022-08-19T05:34:25;18.20;94.30
12125;DHT22;6126;57.908;16.490;2022-08-19T05:36:58;18.30;94.30
12125;DHT22;6126;57.908;16.490;2022-08-19T05:39:28;18.50;94.40
12125;DHT22;6126;57.908;16.490;2022-08-19T05:41:58;18.50;94.40
12125;DHT22;6126;57.908;16.490;2022-08-19T05:44:29;18.30;94.30
12125;DHT22;6126;57.908;16.490;2022-08-19T05:47:02;18.50;94.30
12125;DHT22;6126;57.908;16.490;2022-08-19T05:49:31;18.50;94.30
12125;DHT22;6126;57.908;16.490;2022-08-19T05:52:01;18.60;94.30
12125;DHT22;6126;57.908;16.490;2022-08-19T05:54:29;18.40;94.30
12125;DHT22;6126;57.908;16.490;2022-08-19T05:56:56;18.40;94.20
12125;DHT22;6126;57.908;16.490;2022-08-19T05:59:22;18.90;94.40
12125;DHT22;6126;57.908;16.490;2022-08-19T06:01:50;18.90;94.30
12125;DHT22;6126;57.908;16.490;2022-08-19T06:04:19;19.00;94.40
12125;DHT22;6126;57.908;16.490;2022-08-19T06:06:47;19.10;94.40
12125;DHT22;6126;57.908;16.490;2022-08-19T06:09:18;19.20;94.40
12125;DHT22;6126;57.908;16.490;2022-08-19T06:11:55;19.20;94.30
12125;DHT22;6126;57.908;16.490;2022-08-19T06:14:30;19.30;94.30
12125;DHT22;6126;57.908;16.490;2022-08-19T06:17:00;19.30;94.20
12125;DHT22;6126;57.908;16.490;2022-08-19T06:19:28;19.40;94.30
12125;DHT22;6126;57.908;16.490;2022-08-19T06:21:57;19.50;94.20
12125;DHT22;6126;57.908;16.490;2022-08-19T06:24:26;19.50;94.20
12125;DHT22;6126;57.908;16.490;2022-08-19T06:26:54;19.60;94.20
12125;DHT22;6126;57.908;16.490;2022-08-19T06:29:25;19.60;94.20
12125;DHT22;6126;57.908;16.490;2022-08-19T06:31:54;19.70;94.20
12125;DHT22;6126;57.908;16.490;2022-08-19T06:34:22;19.80;94.30
12125;DHT22;6126;57.908;16.490;2022-08-19T06:36:50;19.90;94.20
12125;DHT22;6126;57.908;16.490;2022-08-19T06:39:21;19.90;94.20
12125;DHT22;6126;57.908;16.490;2022-08-19T06:41:55;20.00;94.20
12125;DHT22;6126;57.908;16.490;2022-08-19T06:44:24;20.10;94.50
12125;DHT22;6126;57.908;16.490;2022-08-19T06:46:53;20.20;94.20
12125;DHT22;6126;57.908;16.490;2022-08-19T06:49:21;20.30;94.20
12125;DHT22;6126;57.908;16.490;2022-08-19T06:51:49;20.40;94.20
12125;DHT22;6126;57.908;16.490;2022-08-19T06:54:17;20.40;94.10
12125;DHT22;6126;57.908;16.490;2022-08-19T06:56:43;20.60;94.20
12125;DHT22;6126;57.908;16.490;2022-08-19T06:59:13;20.70;94.10
12125;DHT22;6126;57.908;16.490;2022-08-19T07:01:44;20.70;94.00
12125;DHT22;6126;57.908;16.490;2022-08-19T07:04:14;20.80;94.00
12125;DHT22;6126;57.908;16.490;2022-08-19T07:06:43;20.90;94.00
12125;DHT22;6126;57.908;16.490;2022-08-19T07:09:14;21.00;94.00
12125;DHT22;6126;57.908;16.490;2022-08-19T07:11:48;21.00;93.90
12125;DHT22;6126;57.908;16.490;2022-08-19T07:14:18;21.10;93.90
12125;DHT22;6126;57.908;16.490;2022-08-19T07:16:47;21.20;93.80
12125;DHT22;6126;57.908;16.490;2022-08-19T07:19:15;21.20;93.80
12125;DHT22;6126;57.908;16.490;2022-08-19T07:21:42;21.30;93.90
12125;DHT22;6126;57.908;16.490;2022-08-19T07:24:08;21.40;93.90
12125;DHT22;6126;57.908;16.490;2022-08-19T07:26:39;21.40;93.80
12125;DHT22;6126;57.908;16.490;2022-08-19T07:29:07;21.50;93.80
12125;DHT22;6126;57.908;16.490;2022-08-19T07:31:33;21.60;93.90
12125;DHT22;6126;57.908;16.490;2022-08-19T07:34:03;21.70;93.90
12125;DHT22;6126;57.908;16.490;2022-08-19T07:36:34;21.80;93.80
12125;DHT22;6126;57.908;16.490;2022-08-19T07:39:06;21.90;93.80
12125;DHT22;6126;57.908;16.490;2022-08-19T07:41:45;22.00;93.80
12125;DHT22;6126;57.908;16.490;2022-08-19T07:44:13;22.10;93.80
12125;DHT22;6126;57.908;16.490;2022-08-19T07:46:45;22.10;93.80
12125;DHT22;6126;57.908;16.490;2022-08-19T07:49:14;22.20;93.70
12125;DHT22;6126;57.908;16.490;2022-08-19T07:52:05;22.30;93.70
12125;DHT22;6126;57.908;16.490;2022-08-19T07:54:34;22.40;93.70
12125;DHT22;6126;57.908;16.490;2022-08-19T07:57:03;22.50;93.70
12125;DHT22;6126;57.908;16.490;2022-08-19T07:59:29;22.60;93.60
12125;DHT22;6126;57.908;16.490;2022-08-19T08:01:56;22.60;93.50
12125;DHT22;6126;57.908;16.490;2022-08-19T08:04:24;22.70;93.60
12125;DHT22;6126;57.908;16.490;2022-08-19T08:07:09;22.80;93.60
12125;DHT22;6126;57.908;16.490;2022-08-19T08:09:54;22.90;93.50
12125;DHT22;6126;57.908;16.490;2022-08-19T08:12:31;23.00;93.40
12125;DHT22;6126;57.908;16.490;2022-08-19T08:15:04;23.10;93.40
12125;DHT22;6126;57.908;16.490;2022-08-19T08:17:36;23.20;93.40
12125;DHT22;6126;57.908;16.490;2022-08-19T08:20:06;23.30;93.30
12125;DHT22;6126;57.908;16.490;2022-08-19T08:22:32;23.50;93.30
12125;DHT22;6126;57.908;16.490;2022-08-19T08:25:21;23.60;93.10
12125;DHT22;6126;57.908;16.490;2022-08-19T08:27:49;23.80;93.00
12125;DHT22;6126;57.908;16.490;2022-08-19T08:30:20;23.90;92.90
12125;DHT22;6126;57.908;16.490;2022-08-19T08:32:48;24.10;92.80
12125;DHT22;6126;57.908;16.490;2022-08-19T08:35:17;24.20;92.60
12125;DHT22;6126;57.908;16.490;2022-08-19T08:37:51;24.40;92.50
12125;DHT22;6126;57.908;16.490;2022-08-19T08:43:14;24.60;92.10
12125;DHT22;6126;57.908;16.490;2022-08-19T08:46:17;24.70;92.10
12125;DHT22;6126;57.908;16.490;2022-08-19T08:51:32;24.90;91.70
12125;DHT22;6126;57.908;16.490;2022-08-19T08:54:02;25.00;91.60
12125;DHT22;6126;57.908;16.490;2022-08-19T08:56:32;25.10;91.40
12125;DHT22;6126;57.908;16.490;2022-08-19T08:59:05;25.20;91.20
12125;DHT22;6126;57.908;16.490;2022-08-19T09:01:46;25.30;91.10
12125;DHT22;6126;57.908;16.490;2022-08-19T09:04:12;25.40;90.90
12125;DHT22;6126;57.908;16.490;2022-08-19T09:09:23;25.60;90.70
12125;DHT22;6126;57.908;16.490;2022-08-19T09:15:03;25.80;90.40
12125;DHT22;6126;57.908;16.490;2022-08-19T09:17:32;25.90;90.20
12125;DHT22;6126;57.908;16.490;2022-08-19T09:20:08;25.90;90.10
12125;DHT22;6126;57.908;16.490;2022-08-19T09:22:42;26.00;90.00
12125;DHT22;6126;57.908;16.490;2022-08-19T09:25:15;26.00;89.90
12125;DHT22;6126;57.908;16.490;2022-08-19T09:27:43;26.00;89.60
12125;DHT22;6126;57.908;16.490;2022-08-19T09:30:14;26.10;89.20
12125;DHT22;6126;57.908;16.490;2022-08-19T09:32:46;26.20;89.00
12125;DHT22;6126;57.908;16.490;2022-08-19T09:35:13;26.30;88.60
12125;DHT22;6126;57.908;16.490;2022-08-19T09:37:41;26.40;88.20
12125;DHT22;6126;57.908;16.490;2022-08-19T09:40:09;26.40;87.80
12125;DHT22;6126;57.908;16.490;2022-08-19T09:42:35;26.50;87.60
12125;DHT22;6126;57.908;16.490;2022-08-19T09:45:02;26.60;87.20
12125;DHT22;6126;57.908;16.490;2022-08-19T09:47:29;26.60;86.80
12125;DHT22;6126;57.908;16.490;2022-08-19T09:49:55;26.70;86.40
12125;DHT22;6126;57.908;16.490;2022-08-19T09:52:20;26.70;86.00
12125;DHT22;6126;57.908;16.490;2022-08-19T09:54:46;26.80;85.90
12125;DHT22;6126;57.908;16.490;2022-08-19T09:57:12;26.80;85.60
12125;DHT22;6126;57.908;16.490;2022-08-19T09:59:39;26.80;85.20
12125;DHT22;6126;57.908;16.490;2022-08-19T10:02:05;26.80;85.00
12125;DHT22;6126;57.908;16.490;2022-08-19T10:04:31;26.80;84.70
12125;DHT22;6126;57.908;16.490;2022-08-19T10:07:17;26.90;84.50
12125;DHT22;6126;57.908;16.490;2022-08-19T10:09:43;26.90;84.10
12125;DHT22;6126;57.908;16.490;2022-08-19T10:12:09;26.90;84.00
12125;DHT22;6126;57.908;16.490;2022-08-19T10:14:35;27.00;83.80
12125;DHT22;6126;57.908;16.490;2022-08-19T10:17:02;27.00;84.40
12125;DHT22;6126;57.908;16.490;2022-08-19T10:19:28;27.00;83.40
12125;DHT22;6126;57.908;16.490;2022-08-19T10:22:03;27.00;83.20
12125;DHT22;6126;57.908;16.490;2022-08-19T10:24:30;26.90;83.00
12125;DHT22;6126;57.908;16.490;2022-08-19T10:26:57;26.90;83.00
12125;DHT22;6126;57.908;16.490;2022-08-19T10:29:24;27.00;82.90
12125;DHT22;6126;57.908;16.490;2022-08-19T10:31:53;27.00;82.70
12125;DHT22;6126;57.908;16.490;2022-08-19T10:34:19;27.10;82.40
12125;DHT22;6126;57.908;16.490;2022-08-19T10:36:45;27.20;82.10
12125;DHT22;6126;57.908;16.490;2022-08-19T10:39:11;27.30;81.90
12125;DHT22;6126;57.908;16.490;2022-08-19T10:41:39;27.40;81.50
12125;DHT22;6126;57.908;16.490;2022-08-19T10:44:07;27.50;81.30
12125;DHT22;6126;57.908;16.490;2022-08-19T10:46:42;27.50;80.90
12125;DHT22;6126;57.908;16.490;2022-08-19T10:49:11;27.50;80.70
12125;DHT22;6126;57.908;16.490;2022-08-19T10:51:38;27.50;80.50
12125;DHT22;6126;57.908;16.490;2022-08-19T10:54:23;27.50;80.40
12125;DHT22;6126;57.908;16.490;2022-08-19T10:57:10;27.50;80.20
12125;DHT22;6126;57.908;16.490;2022-08-19T10:59:36;27.50;79.90
12125;DHT22;6126;57.908;16.490;2022-08-19T11:02:07;27.50;79.70
12125;DHT22;6126;57.908;16.490;2022-08-19T11:04:36;27.50;79.60
12125;DHT22;6126;57.908;16.490;2022-08-19T11:07:04;27.40;79.40
12125;DHT22;6126;57.908;16.490;2022-08-19T11:09:37;27.40;79.30
12125;DHT22;6126;57.908;16.490;2022-08-19T11:12:05;27.40;79.30
12125;DHT22;6126;57.908;16.490;2022-08-19T11:14:33;27.30;79.30
12125;DHT22;6126;57.908;16.490;2022-08-19T11:17:00;27.30;79.20
12125;DHT22;6126;57.908;16.490;2022-08-19T11:19:27;27.40;79.00
12125;DHT22;6126;57.908;16.490;2022-08-19T11:21:52;27.50;78.70
12125;DHT22;6126;57.908;16.490;2022-08-19T11:24:22;27.60;78.40
12125;DHT22;6126;57.908;16.490;2022-08-19T11:26:51;27.70;78.00
12125;DHT22;6126;57.908;16.490;2022-08-19T11:29:22;27.80;77.60
12125;DHT22;6126;57.908;16.490;2022-08-19T11:31:51;27.90;77.30
12125;DHT22;6126;57.908;16.490;2022-08-19T11:34:21;28.00;77.10
12125;DHT22;6126;57.908;16.490;2022-08-19T11:36:50;28.00;76.80
12125;DHT22;6126;57.908;16.490;2022-08-19T11:39:20;28.10;76.40
12125;DHT22;6126;57.908;16.490;2022-08-19T11:41:47;28.10;76.10
12125;DHT22;6126;57.908;16.490;2022-08-19T11:44:14;28.20;75.90
12125;DHT22;6126;57.908;16.490;2022-08-19T11:46:41;28.30;75.60
12125;DHT22;6126;57.908;16.490;2022-08-19T11:49:14;28.30;75.30
12125;DHT22;6126;57.908;16.490;2022-08-19T11:51:41;28.40;75.10
12125;DHT22;6126;57.908;16.490;2022-08-19T11:54:09;28.40;74.90
12125;DHT22;6126;57.908;16.490;2022-08-19T11:56:38;28.40;74.60
12125;DHT22;6126;57.908;16.490;2022-08-19T11:59:04;28.40;74.50
12125;DHT22;6126;57.908;16.490;2022-08-19T12:01:30;28.40;74.20
12125;DHT22;6126;57.908;16.490;2022-08-19T12:03:57;28.40;74.00
12125;DHT22;6126;57.908;16.490;2022-08-19T12:06:27;28.40;74.00
12125;DHT22;6126;57.908;16.490;2022-08-19T12:08:59;28.40;73.90
12125;DHT22;6126;57.908;16.490;2022-08-19T12:11:31;28.40;73.70
12125;DHT22;6126;57.908;16.490;2022-08-19T12:13:57;28.40;73.50
12125;DHT22;6126;57.908;16.490;2022-08-19T12:16:27;28.40;73.30
12125;DHT22;6126;57.908;16.490;2022-08-19T12:18:55;28.50;73.10
12125;DHT22;6126;57.908;16.490;2022-08-19T12:21:25;28.50;72.90
12125;DHT22;6126;57.908;16.490;2022-08-19T12:23:56;28.50;72.70
12125;DHT22;6126;57.908;16.490;2022-08-19T12:26:25;28.50;72.70
12125;DHT22;6126;57.908;16.490;2022-08-19T12:28:52;28.50;72.50
12125;DHT22;6126;57.908;16.490;2022-08-19T12:31:18;28.50;72.40
12125;DHT22;6126;57.908;16.490;2022-08-19T12:33:45;28.50;72.20
12125;DHT22;6126;57.908;16.490;2022-08-19T12:36:13;28.60;72.00
12125;DHT22;6126;57.908;16.490;2022-08-19T12:38:41;28.60;71.80
12125;DHT22;6126;57.908;16.490;2022-08-19T12:41:11;28.60;71.70
12125;DHT22;6126;57.908;16.490;2022-08-19T12:43:38;28.60;71.60
12125;DHT22;6126;57.908;16.490;2022-08-19T12:46:05;28.60;71.40
12125;DHT22;6126;57.908;16.490;2022-08-19T12:48:32;28.60;71.30
12125;DHT22;6126;57.908;16.490;2022-08-19T12:50:59;28.60;71.10
12125;DHT22;6126;57.908;16.490;2022-08-19T12:53:30;28.60;71.00
12125;DHT22;6126;57.908;16.490;2022-08-19T12:55:57;28.60;70.90
12125;DHT22;6126;57.908;16.490;2022-08-19T12:58:25;28.60;70.90
12125;DHT22;6126;57.908;16.490;2022-08-19T13:00:52;28.60;70.80
12125;DHT22;6126;57.908;16.490;2022-08-19T13:03:18;28.60;70.70
12125;DHT22;6126;57.908;16.490;2022-08-19T13:05:44;28.60;70.60
12125;DHT22;6126;57.908;16.490;2022-08-19T13:08:10;28.60;70.50
12125;DHT22;6126;57.908;16.490;2022-08-19T13:10:37;28.60;70.40
12125;DHT22;6126;57.908;16.490;2022-08-19T13:13:08;28.60;70.20
12125;DHT22;6126;57.908;16.490;2022-08-19T13:15:37;28.60;70.20
12125;DHT22;6126;57.908;16.490;2022-08-19T13:18:09;28.60;70.10
12125;DHT22;6126;57.908;16.490;2022-08-19T13:20:37;28.60;70.10
12125;DHT22;6126;57.908;16.490;2022-08-19T13:23:04;28.60;70.00
12125;DHT22;6126;57.908;16.490;2022-08-19T13:25:30;28.60;69.80
12125;DHT22;6126;57.908;16.490;2022-08-19T13:27:57;28.60;69.70
12125;DHT22;6126;57.908;16.490;2022-08-19T13:30:23;28.60;69.60
12125;DHT22;6126;57.908;16.490;2022-08-19T13:33:08;28.60;69.50
12125;DHT22;6126;57.908;16.490;2022-08-19T13:35:48;28.60;69.40
12125;DHT22;6126;57.908;16.490;2022-08-19T13:38:23;28.60;69.30
12125;DHT22;6126;57.908;16.490;2022-08-19T13:40:51;28.60;69.40
12125;DHT22;6126;57.908;16.490;2022-08-19T13:43:20;28.50;69.20
12125;DHT22;6126;57.908;16.490;2022-08-19T13:45:49;28.50;69.20
12125;DHT22;6126;57.908;16.490;2022-08-19T13:48:17;28.50;69.20
12125;DHT22;6126;57.908;16.490;2022-08-19T13:50:45;28.50;69.10
12125;DHT22;6126;57.908;16.490;2022-08-19T13:53:12;28.50;69.20
12125;DHT22;6126;57.908;16.490;2022-08-19T13:55:43;28.50;69.10
12125;DHT22;6126;57.908;16.490;2022-08-19T13:58:10;28.50;69.10
12125;DHT22;6126;57.908;16.490;2022-08-19T14:00:41;28.50;69.10
12125;DHT22;6126;57.908;16.490;2022-08-19T14:03:09;28.40;69.10
12125;DHT22;6126;57.908;16.490;2022-08-19T14:05:35;28.40;69.10
12125;DHT22;6126;57.908;16.490;2022-08-19T14:08:01;28.40;69.20
12125;DHT22;6126;57.908;16.490;2022-08-19T14:10:28;28.40;69.20
12125;DHT22;6126;57.908;16.490;2022-08-19T14:12:57;28.40;69.20
12125;DHT22;6126;57.908;16.490;2022-08-19T14:15:26;28.30;69.20
12125;DHT22;6126;57.908;16.490;2022-08-19T14:17:53;28.30;69.10
12125;DHT22;6126;57.908;16.490;2022-08-19T14:20:19;28.30;69.20
12125;DHT22;6126;57.908;16.490;2022-08-19T14:22:47;28.20;69.20
12125;DHT22;6126;57.908;16.490;2022-08-19T14:25:18;28.20;69.40
12125;DHT22;6126;57.908;16.490;2022-08-19T14:27:56;28.10;69.40
12125;DHT22;6126;57.908;16.490;2022-08-19T14:30:25;28.10;69.70
12125;DHT22;6126;57.908;16.490;2022-08-19T14:32:54;28.00;69.80
12125;DHT22;6126;57.908;16.490;2022-08-19T14:35:21;27.90;69.90
12125;DHT22;6126;57.908;16.490;2022-08-19T14:37:49;27.80;70.00
12125;DHT22;6126;57.908;16.490;2022-08-19T14:40:18;27.80;70.20
12125;DHT22;6126;57.908;16.490;2022-08-19T14:42:46;27.80;70.30
12125;DHT22;6126;57.908;16.490;2022-08-19T14:45:13;27.80;70.30
12125;DHT22;6126;57.908;16.490;2022-08-19T14:47:39;27.70;70.40
12125;DHT22;6126;57.908;16.490;2022-08-19T14:50:07;27.70;70.50
12125;DHT22;6126;57.908;16.490;2022-08-19T14:52:35;27.70;70.60
12125;DHT22;6126;57.908;16.490;2022-08-19T14:55:02;27.70;70.70
12125;DHT22;6126;57.908;16.490;2022-08-19T14:57:29;27.70;70.70
12125;DHT22;6126;57.908;16.490;2022-08-19T14:59:55;27.70;70.70
12125;DHT22;6126;57.908;16.490;2022-08-19T15:02:22;27.70;70.70
12125;DHT22;6126;57.908;16.490;2022-08-19T15:04:48;27.60;70.60
12125;DHT22;6126;57.908;16.490;2022-08-19T15:07:15;27.60;70.70
12125;DHT22;6126;57.908;16.490;2022-08-19T15:09:41;27.50;71.10
12125;DHT22;6126;57.908;16.490;2022-08-19T15:12:07;27.40;71.30
12125;DHT22;6126;57.908;16.490;2022-08-19T15:14:36;27.30;71.60
12125;DHT22;6126;57.908;16.490;2022-08-19T15:17:04;27.20;71.80
12125;DHT22;6126;57.908;16.490;2022-08-19T15:19:31;27.10;72.00
12125;DHT22;6126;57.908;16.490;2022-08-19T15:21:58;27.00;72.30
12125;DHT22;6126;57.908;16.490;2022-08-19T15:24:25;27.00;72.60
12125;DHT22;6126;57.908;16.490;2022-08-19T15:26:55;26.90;72.80
12125;DHT22;6126;57.908;16.490;2022-08-19T15:29:21;26.80;72.90
12125;DHT22;6126;57.908;16.490;2022-08-19T15:31:51;26.80;73.20
12125;DHT22;6126;57.908;16.490;2022-08-19T15:34:21;26.80;73.40
12125;DHT22;6126;57.908;16.490;2022-08-19T15:36:47;26.70;73.50
12125;DHT22;6126;57.908;16.490;2022-08-19T15:39:14;26.70;73.70
12125;DHT22;6126;57.908;16.490;2022-08-19T15:41:41;26.70;73.90
12125;DHT22;6126;57.908;16.490;2022-08-19T15:44:09;26.60;74.00
12125;DHT22;6126;57.908;16.490;2022-08-19T15:46:41;26.60;74.10
12125;DHT22;6126;57.908;16.490;2022-08-19T15:49:10;26.70;74.20
12125;DHT22;6126;57.908;16.490;2022-08-19T15:51:39;26.70;74.20
12125;DHT22;6126;57.908;16.490;2022-08-19T15:54:11;26.70;74.20
12125;DHT22;6126;57.908;16.490;2022-08-19T15:56:39;26.60;74.30